sensor_id;sensor_type;location;lat;lon;timestamp;P1;durP1;ratioP1;P2;durP2;ratioP2
60851;SDS011;48553;50.766;2.900;2022-08-01T00:01:12;6.50;;;2.30;;
60851;SDS011;48553;50.766;2.900;2022-08-01T00:04:13;9.02;;;2.72;;
60851;SDS011;48553;50.766;2.900;2022-08-01T00:07:13;5.82;;;2.40;;
60851;SDS011;48553;50.766;2.900;2022-08-01T00:10:14;8.05;;;2.47;;
60851;SDS011;48553;50.766;2.900;2022-08-01T00:13:16;5.72;;;2.35;;
60851;SDS011;48553;50.766;2.900;2022-08-01T00:16:16;6.13;;;2.38;;
60851;SDS011;48553;50.766;2.900;2022-08-01T00:19:17;7.20;;;2.60;;
60851;SDS011;48553;50.766;2.900;2022-08-01T00:22:17;5.32;;;2.13;;
60851;SDS011;48553;50.766;2.900;2022-08-01T00:25:18;9.10;;;2.63;;
60851;SDS011;48553;50.766;2.900;2022-08-01T00:28:18;7.22;;;2.90;;
60851;SDS011;48553;50.766;2.900;2022-08-01T00:31:19;7.57;;;3.20;;
60851;SDS011;48553;50.766;2.900;2022-08-01T00:34:19;8.70;;;2.78;;
60851;SDS011;48553;50.766;2.900;2022-08-01T00:37:20;7.57;;;2.42;;
60851;SDS011;48553;50.766;2.900;2022-08-01T00:40:20;8.57;;;2.75;;
60851;SDS011;48553;50.766;2.900;2022-08-01T00:43:21;6.60;;;2.67;;
60851;SDS011;48553;50.766;2.900;2022-08-01T00:46:21;6.63;;;2.80;;
60851;SDS011;48553;50.766;2.900;2022-08-01T00:49:22;7.22;;;2.80;;
60851;SDS011;48553;50.766;2.900;2022-08-01T00:52:22;7.72;;;2.80;;
60851;SDS011;48553;50.766;2.900;2022-08-01T00:55:23;7.97;;;2.85;;
60851;SDS011;48553;50.766;2.900;2022-08-01T00:58:23;8.30;;;2.72;;
60851;SDS011;48553;50.766;2.900;2022-08-01T01:01:24;7.22;;;2.83;;
60851;SDS011;48553;50.766;2.900;2022-08-01T01:04:24;8.48;;;2.78;;
60851;SDS011;48553;50.766;2.900;2022-08-01T01:10:42;9.02;;;2.85;;
60851;SDS011;48553;50.766;2.900;2022-08-01T01:13:49;8.60;;;2.88;;
60851;SDS011;48553;50.766;2.900;2022-08-01T01:16:53;8.20;;;3.00;;
60851;SDS011;48553;50.766;2.900;2022-08-01T01:19:55;7.30;;;3.00;;
60851;SDS011;48553;50.766;2.900;2022-08-01T01:23:05;10.48;;;2.90;;
60851;SDS011;48553;50.766;2.900;2022-08-01T01:29:46;9.50;;;3.30;;
60851;SDS011;48553;50.766;2.900;2022-08-01T01:32:49;9.70;;;3.15;;
60851;SDS011;48553;50.766;2.900;2022-08-01T01:35:52;10.25;;;3.17;;
60851;SDS011;48553;50.766;2.900;2022-08-01T01:38:57;7.80;;;3.00;;
60851;SDS011;48553;50.766;2.900;2022-08-01T01:42:02;9.27;;;3.42;;
60851;SDS011;48553;50.766;2.900;2022-08-01T01:45:05;8.13;;;2.78;;
60851;SDS011;48553;50.766;2.900;2022-08-01T01:48:07;9.18;;;3.30;;
60851;SDS011;48553;50.766;2.900;2022-08-01T01:51:10;7.35;;;3.30;;
60851;SDS011;48553;50.766;2.900;2022-08-01T01:54:12;10.50;;;3.30;;
60851;SDS011;48553;50.766;2.900;2022-08-01T01:57:12;7.75;;;3.28;;
60851;SDS011;48553;50.766;2.900;2022-08-01T02:00:14;10.60;;;3.90;;
60851;SDS011;48553;50.766;2.900;2022-08-01T02:03:16;8.15;;;3.47;;
60851;SDS011;48553;50.766;2.900;2022-08-01T02:06:18;8.57;;;3.40;;
60851;SDS011;48553;50.766;2.900;2022-08-01T02:09:20;10.18;;;3.40;;
60851;SDS011;48553;50.766;2.900;2022-08-01T02:12:23;7.00;;;3.00;;
60851;SDS011;48553;50.766;2.900;2022-08-01T02:15:24;5.88;;;2.92;;
60851;SDS011;48553;50.766;2.900;2022-08-01T02:18:26;7.13;;;3.05;;
60851;SDS011;48553;50.766;2.900;2022-08-01T02:21:28;8.32;;;2.75;;
60851;SDS011;48553;50.766;2.900;2022-08-01T02:24:35;8.55;;;2.72;;
60851;SDS011;48553;50.766;2.900;2022-08-01T02:27:54;8.07;;;2.92;;
60851;SDS011;48553;50.766;2.900;2022-08-01T02:31:08;7.97;;;3.00;;
60851;SDS011;48553;50.766;2.900;2022-08-01T02:34:15;9.48;;;3.30;;
60851;SDS011;48553;50.766;2.900;2022-08-01T02:37:18;8.93;;;2.88;;
60851;SDS011;48553;50.766;2.900;2022-08-01T02:40:21;10.15;;;2.97;;
60851;SDS011;48553;50.766;2.900;2022-08-01T02:43:23;9.13;;;2.80;;
60851;SDS011;48553;50.766;2.900;2022-08-01T02:46:29;10.93;;;3.13;;
60851;SDS011;48553;50.766;2.900;2022-08-01T02:49:36;7.50;;;3.05;;
60851;SDS011;48553;50.766;2.900;2022-08-01T02:52:41;8.27;;;3.08;;
60851;SDS011;48553;50.766;2.900;2022-08-01T02:55:45;9.43;;;3.00;;
60851;SDS011;48553;50.766;2.900;2022-08-01T02:58:47;11.43;;;3.20;;
60851;SDS011;48553;50.766;2.900;2022-08-01T03:01:49;8.23;;;3.35;;
60851;SDS011;48553;50.766;2.900;2022-08-01T03:04:51;8.48;;;3.05;;
60851;SDS011;48553;50.766;2.900;2022-08-01T03:07:55;7.70;;;3.20;;
60851;SDS011;48553;50.766;2.900;2022-08-01T03:10:56;6.65;;;2.70;;
60851;SDS011;48553;50.766;2.900;2022-08-01T03:14:01;6.90;;;2.75;;
60851;SDS011;48553;50.766;2.900;2022-08-01T03:17:05;6.97;;;2.83;;
60851;SDS011;48553;50.766;2.900;2022-08-01T03:20:07;8.60;;;3.08;;
60851;SDS011;48553;50.766;2.900;2022-08-01T03:23:11;7.78;;;2.83;;
60851;SDS011;48553;50.766;2.900;2022-08-01T03:26:13;7.45;;;2.85;;
60851;SDS011;48553;50.766;2.900;2022-08-01T03:29:15;10.27;;;3.10;;
60851;SDS011;48553;50.766;2.900;2022-08-01T03:32:19;8.13;;;3.00;;
60851;SDS011;48553;50.766;2.900;2022-08-01T03:35:21;9.50;;;3.08;;
60851;SDS011;48553;50.766;2.900;2022-08-01T03:38:24;6.57;;;2.88;;
60851;SDS011;48553;50.766;2.900;2022-08-01T03:41:27;7.78;;;2.90;;
60851;SDS011;48553;50.766;2.900;2022-08-01T03:44:32;5.35;;;2.72;;
60851;SDS011;48553;50.766;2.900;2022-08-01T03:47:38;7.45;;;2.55;;
60851;SDS011;48553;50.766;2.900;2022-08-01T03:50:48;5.68;;;2.80;;
60851;SDS011;48553;50.766;2.900;2022-08-01T03:53:51;6.78;;;2.15;;
60851;SDS011;48553;50.766;2.900;2022-08-01T03:56:54;6.43;;;2.30;;
60851;SDS011;48553;50.766;2.900;2022-08-01T03:59:57;4.90;;;2.22;;
60851;SDS011;48553;50.766;2.900;2022-08-01T04:02:58;5.20;;;2.10;;
60851;SDS011;48553;50.766;2.900;2022-08-01T04:05:59;6.57;;;2.17;;
60851;SDS011;48553;50.766;2.900;2022-08-01T04:09:04;5.00;;;2.00;;
60851;SDS011;48553;50.766;2.900;2022-08-01T04:12:04;4.63;;;1.80;;
60851;SDS011;48553;50.766;2.900;2022-08-01T04:15:05;6.20;;;1.88;;
60851;SDS011;48553;50.766;2.900;2022-08-01T04:18:06;4.63;;;1.83;;
60851;SDS011;48553;50.766;2.900;2022-08-01T04:21:07;5.95;;;1.92;;
60851;SDS011;48553;50.766;2.900;2022-08-01T04:24:10;4.65;;;1.90;;
60851;SDS011;48553;50.766;2.900;2022-08-01T04:27:17;4.60;;;1.63;;
60851;SDS011;48553;50.766;2.900;2022-08-01T04:30:31;4.03;;;1.88;;
60851;SDS011;48553;50.766;2.900;2022-08-01T04:33:35;4.50;;;1.50;;
60851;SDS011;48553;50.766;2.900;2022-08-01T04:36:39;3.58;;;1.50;;
60851;SDS011;48553;50.766;2.900;2022-08-01T04:39:44;3.85;;;1.73;;
60851;SDS011;48553;50.766;2.900;2022-08-01T04:42:47;5.72;;;1.90;;
60851;SDS011;48553;50.766;2.900;2022-08-01T04:45:49;4.25;;;1.60;;
60851;SDS011;48553;50.766;2.900;2022-08-01T04:48:51;3.92;;;1.65;;
60851;SDS011;48553;50.766;2.900;2022-08-01T04:51:52;3.40;;;1.60;;
60851;SDS011;48553;50.766;2.900;2022-08-01T04:55:11;2.90;;;1.50;;
60851;SDS011;48553;50.766;2.900;2022-08-01T04:58:12;4.25;;;1.50;;
60851;SDS011;48553;50.766;2.900;2022-08-01T05:01:14;4.30;;;1.50;;
60851;SDS011;48553;50.766;2.900;2022-08-01T05:04:14;4.18;;;1.63;;
60851;SDS011;48553;50.766;2.900;2022-08-01T05:07:15;3.28;;;1.38;;
60851;SDS011;48553;50.766;2.900;2022-08-01T05:10:15;4.38;;;1.30;;
60851;SDS011;48553;50.766;2.900;2022-08-01T05:13:16;3.17;;;1.40;;
60851;SDS011;48553;50.766;2.900;2022-08-01T05:16:16;2.58;;;1.58;;
60851;SDS011;48553;50.766;2.900;2022-08-01T05:19:17;3.17;;;1.38;;
60851;SDS011;48553;50.766;2.900;2022-08-01T05:22:17;3.38;;;1.27;;
60851;SDS011;48553;50.766;2.900;2022-08-01T05:25:18;3.92;;;1.48;;
60851;SDS011;48553;50.766;2.900;2022-08-01T05:28:18;3.15;;;1.60;;
60851;SDS011;48553;50.766;2.900;2022-08-01T05:31:19;4.22;;;1.40;;
60851;SDS011;48553;50.766;2.900;2022-08-01T05:34:20;4.45;;;1.60;;
60851;SDS011;48553;50.766;2.900;2022-08-01T05:37:20;3.72;;;1.50;;
60851;SDS011;48553;50.766;2.900;2022-08-01T05:40:21;3.30;;;1.58;;
60851;SDS011;48553;50.766;2.900;2022-08-01T05:43:21;3.45;;;1.27;;
60851;SDS011;48553;50.766;2.900;2022-08-01T05:46:21;3.80;;;1.67;;
60851;SDS011;48553;50.766;2.900;2022-08-01T05:49:22;3.40;;;1.45;;
60851;SDS011;48553;50.766;2.900;2022-08-01T05:52:23;3.55;;;1.70;;
60851;SDS011;48553;50.766;2.900;2022-08-01T05:55:23;5.07;;;1.60;;
60851;SDS011;48553;50.766;2.900;2022-08-01T05:58:24;3.70;;;1.55;;
60851;SDS011;48553;50.766;2.900;2022-08-01T06:01:24;3.42;;;1.45;;
60851;SDS011;48553;50.766;2.900;2022-08-01T06:04:25;4.60;;;1.73;;
60851;SDS011;48553;50.766;2.900;2022-08-01T06:07:26;5.22;;;1.70;;
60851;SDS011;48553;50.766;2.900;2022-08-01T06:10:26;2.95;;;1.50;;
60851;SDS011;48553;50.766;2.900;2022-08-01T06:13:27;4.03;;;1.60;;
60851;SDS011;48553;50.766;2.900;2022-08-01T06:16:27;5.47;;;1.95;;
60851;SDS011;48553;50.766;2.900;2022-08-01T06:19:27;4.35;;;1.90;;
60851;SDS011;48553;50.766;2.900;2022-08-01T06:22:28;4.53;;;1.83;;
60851;SDS011;48553;50.766;2.900;2022-08-01T06:25:29;4.10;;;1.75;;
60851;SDS011;48553;50.766;2.900;2022-08-01T06:28:29;5.55;;;1.83;;
60851;SDS011;48553;50.766;2.900;2022-08-01T06:31:30;4.25;;;1.73;;
60851;SDS011;48553;50.766;2.900;2022-08-01T06:34:31;4.13;;;1.80;;
60851;SDS011;48553;50.766;2.900;2022-08-01T06:37:32;3.35;;;1.80;;
60851;SDS011;48553;50.766;2.900;2022-08-01T06:40:33;3.63;;;1.65;;
60851;SDS011;48553;50.766;2.900;2022-08-01T06:43:33;4.60;;;1.70;;
60851;SDS011;48553;50.766;2.900;2022-08-01T06:46:34;3.45;;;2.00;;
60851;SDS011;48553;50.766;2.900;2022-08-01T06:49:34;3.75;;;1.85;;
60851;SDS011;48553;50.766;2.900;2022-08-01T06:52:35;4.65;;;1.77;;
60851;SDS011;48553;50.766;2.900;2022-08-01T06:55:36;3.50;;;1.88;;
60851;SDS011;48553;50.766;2.900;2022-08-01T06:58:36;4.00;;;1.80;;
60851;SDS011;48553;50.766;2.900;2022-08-01T07:01:37;3.13;;;1.40;;
60851;SDS011;48553;50.766;2.900;2022-08-01T07:04:38;2.67;;;1.60;;
60851;SDS011;48553;50.766;2.900;2022-08-01T07:07:38;2.67;;;1.48;;
60851;SDS011;48553;50.766;2.900;2022-08-01T07:10:39;4.00;;;1.42;;
60851;SDS011;48553;50.766;2.900;2022-08-01T07:13:39;3.72;;;1.42;;
60851;SDS011;48553;50.766;2.900;2022-08-01T07:16:39;3.80;;;1.55;;
60851;SDS011;48553;50.766;2.900;2022-08-01T07:19:40;3.83;;;1.52;;
60851;SDS011;48553;50.766;2.900;2022-08-01T07:22:40;2.88;;;1.75;;
60851;SDS011;48553;50.766;2.900;2022-08-01T07:25:41;3.22;;;1.60;;
60851;SDS011;48553;50.766;2.900;2022-08-01T07:28:41;2.75;;;1.60;;
60851;SDS011;48553;50.766;2.900;2022-08-01T07:31:42;2.92;;;1.50;;
60851;SDS011;48553;50.766;2.900;2022-08-01T07:34:42;3.15;;;1.45;;
60851;SDS011;48553;50.766;2.900;2022-08-01T07:37:43;3.75;;;1.60;;
60851;SDS011;48553;50.766;2.900;2022-08-01T07:40:43;4.90;;;1.60;;
60851;SDS011;48553;50.766;2.900;2022-08-01T07:43:44;3.10;;;1.60;;
60851;SDS011;48553;50.766;2.900;2022-08-01T07:46:44;3.35;;;1.50;;
60851;SDS011;48553;50.766;2.900;2022-08-01T07:49:45;2.67;;;1.40;;
60851;SDS011;48553;50.766;2.900;2022-08-01T07:52:45;4.00;;;1.52;;
60851;SDS011;48553;50.766;2.900;2022-08-01T07:55:46;2.38;;;1.52;;
60851;SDS011;48553;50.766;2.900;2022-08-01T07:58:46;4.03;;;1.73;;
60851;SDS011;48553;50.766;2.900;2022-08-01T08:01:48;3.42;;;1.92;;
60851;SDS011;48553;50.766;2.900;2022-08-01T08:04:50;3.40;;;1.85;;
60851;SDS011;48553;50.766;2.900;2022-08-01T08:07:51;2.72;;;2.00;;
60851;SDS011;48553;50.766;2.900;2022-08-01T08:10:51;2.75;;;2.00;;
60851;SDS011;48553;50.766;2.900;2022-08-01T08:13:51;3.97;;;2.35;;
60851;SDS011;48553;50.766;2.900;2022-08-01T08:16:52;3.55;;;2.50;;
60851;SDS011;48553;50.766;2.900;2022-08-01T08:19:52;4.35;;;2.40;;
60851;SDS011;48553;50.766;2.900;2022-08-01T08:22:53;4.40;;;2.55;;
60851;SDS011;48553;50.766;2.900;2022-08-01T08:25:55;3.67;;;2.50;;
60851;SDS011;48553;50.766;2.900;2022-08-01T08:28:55;4.35;;;2.50;;
60851;SDS011;48553;50.766;2.900;2022-08-01T08:31:56;3.20;;;2.63;;
60851;SDS011;48553;50.766;2.900;2022-08-01T08:34:57;3.47;;;2.50;;
60851;SDS011;48553;50.766;2.900;2022-08-01T08:37:58;3.58;;;2.50;;
60851;SDS011;48553;50.766;2.900;2022-08-01T08:40:59;3.50;;;2.47;;
60851;SDS011;48553;50.766;2.900;2022-08-01T08:44:03;3.00;;;2.40;;
60851;SDS011;48553;50.766;2.900;2022-08-01T08:47:05;3.65;;;2.60;;
60851;SDS011;48553;50.766;2.900;2022-08-01T08:50:07;3.92;;;2.30;;
60851;SDS011;48553;50.766;2.900;2022-08-01T08:53:09;3.05;;;2.25;;
60851;SDS011;48553;50.766;2.900;2022-08-01T08:56:11;4.13;;;2.47;;
60851;SDS011;48553;50.766;2.900;2022-08-01T08:59:13;4.22;;;2.30;;
60851;SDS011;48553;50.766;2.900;2022-08-01T09:02:14;3.85;;;2.70;;
60851;SDS011;48553;50.766;2.900;2022-08-01T09:05:14;3.65;;;2.55;;
60851;SDS011;48553;50.766;2.900;2022-08-01T09:08:15;3.63;;;2.30;;
60851;SDS011;48553;50.766;2.900;2022-08-01T09:11:15;3.72;;;2.63;;
60851;SDS011;48553;50.766;2.900;2022-08-01T09:14:17;3.35;;;2.25;;
60851;SDS011;48553;50.766;2.900;2022-08-01T09:17:23;2.80;;;2.25;;
60851;SDS011;48553;50.766;2.900;2022-08-01T09:20:24;3.83;;;2.40;;
60851;SDS011;48553;50.766;2.900;2022-08-01T09:23:31;3.30;;;2.13;;
60851;SDS011;48553;50.766;2.900;2022-08-01T09:26:33;3.70;;;2.60;;
60851;SDS011;48553;50.766;2.900;2022-08-01T09:29:35;4.40;;;2.65;;
60851;SDS011;48553;50.766;2.900;2022-08-01T09:32:36;4.07;;;2.50;;
60851;SDS011;48553;50.766;2.900;2022-08-01T09:35:55;3.95;;;2.72;;
60851;SDS011;48553;50.766;2.900;2022-08-01T09:42:24;4.75;;;3.05;;
60851;SDS011;48553;50.766;2.900;2022-08-01T09:45:34;4.95;;;3.17;;
60851;SDS011;48553;50.766;2.900;2022-08-01T09:48:34;4.40;;;3.13;;
60851;SDS011;48553;50.766;2.900;2022-08-01T09:51:37;4.95;;;3.50;;
60851;SDS011;48553;50.766;2.900;2022-08-01T09:54:39;4.63;;;3.60;;
60851;SDS011;48553;50.766;2.900;2022-08-01T09:57:40;5.63;;;3.60;;
60851;SDS011;48553;50.766;2.900;2022-08-01T10:00:57;6.25;;;3.90;;
60851;SDS011;48553;50.766;2.900;2022-08-01T10:04:07;6.90;;;4.15;;
60851;SDS011;48553;50.766;2.900;2022-08-01T10:07:09;5.22;;;3.85;;
60851;SDS011;48553;50.766;2.900;2022-08-01T10:10:11;4.85;;;3.63;;
60851;SDS011;48553;50.766;2.900;2022-08-01T10:13:13;5.32;;;4.03;;
60851;SDS011;48553;50.766;2.900;2022-08-01T10:16:14;6.07;;;4.15;;
60851;SDS011;48553;50.766;2.900;2022-08-01T10:19:15;4.55;;;3.90;;
60851;SDS011;48553;50.766;2.900;2022-08-01T10:22:16;6.05;;;4.00;;
60851;SDS011;48553;50.766;2.900;2022-08-01T10:25:18;5.22;;;4.20;;
60851;SDS011;48553;50.766;2.900;2022-08-01T10:28:20;7.63;;;4.45;;
60851;SDS011;48553;50.766;2.900;2022-08-01T10:31:22;5.80;;;4.55;;
60851;SDS011;48553;50.766;2.900;2022-08-01T10:34:23;6.40;;;5.10;;
60851;SDS011;48553;50.766;2.900;2022-08-01T10:37:24;6.80;;;4.68;;
60851;SDS011;48553;50.766;2.900;2022-08-01T10:40:25;6.43;;;5.20;;
60851;SDS011;48553;50.766;2.900;2022-08-01T10:43:27;8.82;;;5.75;;
60851;SDS011;48553;50.766;2.900;2022-08-01T10:46:27;7.57;;;5.32;;
60851;SDS011;48553;50.766;2.900;2022-08-01T10:49:31;9.10;;;6.03;;
60851;SDS011;48553;50.766;2.900;2022-08-01T10:52:36;8.27;;;5.93;;
60851;SDS011;48553;50.766;2.900;2022-08-01T10:55:57;8.02;;;6.45;;
60851;SDS011;48553;50.766;2.900;2022-08-01T10:59:01;8.68;;;6.38;;
60851;SDS011;48553;50.766;2.900;2022-08-01T11:02:04;9.05;;;6.28;;
60851;SDS011;48553;50.766;2.900;2022-08-01T11:05:07;8.77;;;6.20;;
60851;SDS011;48553;50.766;2.900;2022-08-01T11:08:21;8.63;;;6.47;;
60851;SDS011;48553;50.766;2.900;2022-08-01T11:11:22;7.47;;;5.85;;
60851;SDS011;48553;50.766;2.900;2022-08-01T11:14:23;8.77;;;6.07;;
60851;SDS011;48553;50.766;2.900;2022-08-01T11:20:37;7.07;;;5.38;;
60851;SDS011;48553;50.766;2.900;2022-08-01T11:23:46;7.38;;;5.10;;
60851;SDS011;48553;50.766;2.900;2022-08-01T11:30:21;5.45;;;4.63;;
60851;SDS011;48553;50.766;2.900;2022-08-01T11:36:41;3.95;;;3.15;;
60851;SDS011;48553;50.766;2.900;2022-08-01T11:39:41;4.55;;;3.25;;
60851;SDS011;48553;50.766;2.900;2022-08-01T11:42:42;4.18;;;3.15;;
60851;SDS011;48553;50.766;2.900;2022-08-01T11:45:49;3.92;;;2.60;;
60851;SDS011;48553;50.766;2.900;2022-08-01T11:49:30;4.57;;;2.75;;
60851;SDS011;48553;50.766;2.900;2022-08-01T11:52:29;3.33;;;2.40;;
60851;SDS011;48553;50.766;2.900;2022-08-01T11:55:32;3.78;;;2.22;;
60851;SDS011;48553;50.766;2.900;2022-08-01T11:58:34;3.28;;;1.90;;
60851;SDS011;48553;50.766;2.900;2022-08-01T12:01:35;3.38;;;1.90;;
60851;SDS011;48553;50.766;2.900;2022-08-01T12:04:45;4.57;;;2.03;;
60851;SDS011;48553;50.766;2.900;2022-08-01T12:07:50;2.22;;;1.70;;
60851;SDS011;48553;50.766;2.900;2022-08-01T12:10:51;3.40;;;1.83;;
60851;SDS011;48553;50.766;2.900;2022-08-01T12:13:52;2.17;;;1.50;;
60851;SDS011;48553;50.766;2.900;2022-08-01T12:16:55;2.10;;;1.50;;
60851;SDS011;48553;50.766;2.900;2022-08-01T12:19:55;2.40;;;1.70;;
60851;SDS011;48553;50.766;2.900;2022-08-01T12:23:00;2.30;;;1.30;;
60851;SDS011;48553;50.766;2.900;2022-08-01T12:26:03;3.33;;;1.63;;
60851;SDS011;48553;50.766;2.900;2022-08-01T12:29:04;2.70;;;1.60;;
60851;SDS011;48553;50.766;2.900;2022-08-01T12:32:04;3.30;;;1.50;;
60851;SDS011;48553;50.766;2.900;2022-08-01T12:35:22;3.58;;;1.70;;
60851;SDS011;48553;50.766;2.900;2022-08-01T12:38:24;3.60;;;1.73;;
60851;SDS011;48553;50.766;2.900;2022-08-01T12:41:26;3.50;;;2.35;;
60851;SDS011;48553;50.766;2.900;2022-08-01T12:44:27;2.88;;;1.70;;
60851;SDS011;48553;50.766;2.900;2022-08-01T12:47:29;2.00;;;1.70;;
60851;SDS011;48553;50.766;2.900;2022-08-01T12:50:30;3.45;;;1.60;;
60851;SDS011;48553;50.766;2.900;2022-08-01T12:53:34;2.65;;;1.55;;
60851;SDS011;48553;50.766;2.900;2022-08-01T12:56:35;2.30;;;1.37;;
60851;SDS011;48553;50.766;2.900;2022-08-01T12:59:36;3.42;;;1.90;;
60851;SDS011;48553;50.766;2.900;2022-08-01T13:02:36;3.80;;;1.80;;
60851;SDS011;48553;50.766;2.900;2022-08-01T13:05:45;2.85;;;1.95;;
60851;SDS011;48553;50.766;2.900;2022-08-01T13:08:48;3.22;;;1.80;;
60851;SDS011;48553;50.766;2.900;2022-08-01T13:11:48;2.75;;;2.10;;
60851;SDS011;48553;50.766;2.900;2022-08-01T13:14:49;3.50;;;1.55;;
60851;SDS011;48553;50.766;2.900;2022-08-01T13:17:50;2.80;;;1.50;;
60851;SDS011;48553;50.766;2.900;2022-08-01T13:21:11;2.92;;;1.50;;
60851;SDS011;48553;50.766;2.900;2022-08-01T13:24:15;3.10;;;1.63;;
60851;SDS011;48553;50.766;2.900;2022-08-01T13:27:21;3.35;;;1.73;;
60851;SDS011;48553;50.766;2.900;2022-08-01T13:30:23;2.65;;;1.58;;
60851;SDS011;48553;50.766;2.900;2022-08-01T13:33:25;3.47;;;2.22;;
60851;SDS011;48553;50.766;2.900;2022-08-01T13:36:26;3.17;;;2.03;;
60851;SDS011;48553;50.766;2.900;2022-08-01T13:39:28;1.95;;;1.35;;
60851;SDS011;48553;50.766;2.900;2022-08-01T13:42:43;2.92;;;2.00;;
60851;SDS011;48553;50.766;2.900;2022-08-01T13:45:43;2.45;;;1.50;;
60851;SDS011;48553;50.766;2.900;2022-08-01T13:48:44;3.15;;;1.75;;
60851;SDS011;48553;50.766;2.900;2022-08-01T13:51:44;3.00;;;2.00;;
60851;SDS011;48553;50.766;2.900;2022-08-01T13:54:46;3.17;;;1.58;;
60851;SDS011;48553;50.766;2.900;2022-08-01T13:57:46;3.35;;;1.50;;
60851;SDS011;48553;50.766;2.900;2022-08-01T14:00:47;1.85;;;1.10;;
60851;SDS011;48553;50.766;2.900;2022-08-01T14:03:47;2.00;;;1.40;;
60851;SDS011;48553;50.766;2.900;2022-08-01T14:06:48;1.90;;;1.20;;
60851;SDS011;48553;50.766;2.900;2022-08-01T14:09:48;2.83;;;1.45;;
60851;SDS011;48553;50.766;2.900;2022-08-01T14:12:49;2.25;;;1.75;;
60851;SDS011;48553;50.766;2.900;2022-08-01T14:15:50;2.05;;;1.58;;
60851;SDS011;48553;50.766;2.900;2022-08-01T14:18:50;3.40;;;1.70;;
60851;SDS011;48553;50.766;2.900;2022-08-01T14:21:51;3.65;;;1.83;;
60851;SDS011;48553;50.766;2.900;2022-08-01T14:24:52;2.40;;;1.60;;
60851;SDS011;48553;50.766;2.900;2022-08-01T14:27:52;2.95;;;1.85;;
60851;SDS011;48553;50.766;2.900;2022-08-01T14:30:53;2.92;;;2.00;;
60851;SDS011;48553;50.766;2.900;2022-08-01T14:33:55;3.65;;;2.10;;
60851;SDS011;48553;50.766;2.900;2022-08-01T14:36:55;2.47;;;1.90;;
60851;SDS011;48553;50.766;2.900;2022-08-01T14:39:56;2.88;;;1.70;;
60851;SDS011;48553;50.766;2.900;2022-08-01T14:42:57;2.10;;;1.60;;
60851;SDS011;48553;50.766;2.900;2022-08-01T14:45:58;2.50;;;1.90;;
60851;SDS011;48553;50.766;2.900;2022-08-01T14:48:59;5.90;;;2.75;;
60851;SDS011;48553;50.766;2.900;2022-08-01T14:52:00;2.90;;;1.88;;
60851;SDS011;48553;50.766;2.900;2022-08-01T14:55:00;3.20;;;2.25;;
60851;SDS011;48553;50.766;2.900;2022-08-01T14:58:01;2.83;;;1.70;;
60851;SDS011;48553;50.766;2.900;2022-08-01T15:01:01;3.33;;;1.73;;
60851;SDS011;48553;50.766;2.900;2022-08-01T15:04:04;3.25;;;1.90;;
60851;SDS011;48553;50.766;2.900;2022-08-01T15:07:05;3.70;;;1.80;;
60851;SDS011;48553;50.766;2.900;2022-08-01T15:10:05;3.22;;;1.92;;
60851;SDS011;48553;50.766;2.900;2022-08-01T15:13:06;2.42;;;1.83;;
60851;SDS011;48553;50.766;2.900;2022-08-01T15:16:07;3.28;;;2.03;;
60851;SDS011;48553;50.766;2.900;2022-08-01T15:19:08;2.53;;;2.08;;
60851;SDS011;48553;50.766;2.900;2022-08-01T15:22:08;2.20;;;1.75;;
60851;SDS011;48553;50.766;2.900;2022-08-01T15:25:09;3.78;;;2.05;;
60851;SDS011;48553;50.766;2.900;2022-08-01T15:28:10;3.88;;;2.10;;
60851;SDS011;48553;50.766;2.900;2022-08-01T15:31:11;2.92;;;2.22;;
60851;SDS011;48553;50.766;2.900;2022-08-01T15:34:12;3.65;;;2.60;;
60851;SDS011;48553;50.766;2.900;2022-08-01T15:37:12;3.40;;;2.25;;
60851;SDS011;48553;50.766;2.900;2022-08-01T15:40:14;3.28;;;2.20;;
60851;SDS011;48553;50.766;2.900;2022-08-01T15:43:15;3.55;;;2.30;;
60851;SDS011;48553;50.766;2.900;2022-08-01T15:46:15;3.15;;;2.38;;
60851;SDS011;48553;50.766;2.900;2022-08-01T15:49:16;4.22;;;2.80;;
60851;SDS011;48553;50.766;2.900;2022-08-01T15:52:17;3.95;;;2.90;;
60851;SDS011;48553;50.766;2.900;2022-08-01T15:55:17;4.25;;;2.60;;
60851;SDS011;48553;50.766;2.900;2022-08-01T15:58:18;3.17;;;2.80;;
60851;SDS011;48553;50.766;2.900;2022-08-01T16:01:19;4.15;;;2.70;;
60851;SDS011;48553;50.766;2.900;2022-08-01T16:04:21;2.95;;;2.65;;
60851;SDS011;48553;50.766;2.900;2022-08-01T16:07:21;5.60;;;3.47;;
60851;SDS011;48553;50.766;2.900;2022-08-01T16:10:22;3.67;;;2.90;;
60851;SDS011;48553;50.766;2.900;2022-08-01T16:13:22;2.90;;;2.58;;
60851;SDS011;48553;50.766;2.900;2022-08-01T16:16:22;3.30;;;2.60;;
60851;SDS011;48553;50.766;2.900;2022-08-01T16:19:23;4.68;;;3.08;;
60851;SDS011;48553;50.766;2.900;2022-08-01T16:22:24;3.75;;;2.83;;
60851;SDS011;48553;50.766;2.900;2022-08-01T16:28:28;4.67;;;3.00;;
60851;SDS011;48553;50.766;2.900;2022-08-01T16:31:29;3.58;;;2.72;;
60851;SDS011;48553;50.766;2.900;2022-08-01T16:34:29;3.33;;;2.70;;
60851;SDS011;48553;50.766;2.900;2022-08-01T16:37:30;4.13;;;2.55;;
60851;SDS011;48553;50.766;2.900;2022-08-01T16:40:31;2.92;;;2.42;;
60851;SDS011;48553;50.766;2.900;2022-08-01T16:43:31;4.10;;;2.38;;
60851;SDS011;48553;50.766;2.900;2022-08-01T16:46:32;4.57;;;2.70;;
60851;SDS011;48553;50.766;2.900;2022-08-01T16:49:33;4.00;;;3.17;;
60851;SDS011;48553;50.766;2.900;2022-08-01T16:52:33;4.30;;;2.55;;
60851;SDS011;48553;50.766;2.900;2022-08-01T16:55:34;3.45;;;2.90;;
60851;SDS011;48553;50.766;2.900;2022-08-01T16:58:35;6.43;;;4.85;;
60851;SDS011;48553;50.766;2.900;2022-08-01T17:01:36;3.58;;;2.45;;
60851;SDS011;48553;50.766;2.900;2022-08-01T17:04:38;3.83;;;2.75;;
60851;SDS011;48553;50.766;2.900;2022-08-01T17:07:38;5.18;;;4.68;;
60851;SDS011;48553;50.766;2.900;2022-08-01T17:10:40;6.38;;;5.22;;
60851;SDS011;48553;50.766;2.900;2022-08-01T17:13:40;26.73;;;19.80;;
60851;SDS011;48553;50.766;2.900;2022-08-01T17:16:41;24.23;;;19.65;;
60851;SDS011;48553;50.766;2.900;2022-08-01T17:19:42;5.90;;;4.63;;
60851;SDS011;48553;50.766;2.900;2022-08-01T17:22:42;3.35;;;2.60;;
60851;SDS011;48553;50.766;2.900;2022-08-01T17:25:43;6.22;;;3.60;;
60851;SDS011;48553;50.766;2.900;2022-08-01T17:28:44;4.93;;;2.53;;
60851;SDS011;48553;50.766;2.900;2022-08-01T17:31:44;4.70;;;3.10;;
60851;SDS011;48553;50.766;2.900;2022-08-01T17:34:45;2.65;;;2.30;;
60851;SDS011;48553;50.766;2.900;2022-08-01T17:37:45;3.08;;;2.40;;
60851;SDS011;48553;50.766;2.900;2022-08-01T17:40:45;4.80;;;3.85;;
60851;SDS011;48553;50.766;2.900;2022-08-01T17:43:46;5.78;;;3.53;;
60851;SDS011;48553;50.766;2.900;2022-08-01T17:46:47;3.60;;;2.45;;
60851;SDS011;48553;50.766;2.900;2022-08-01T17:49:47;3.92;;;2.70;;
60851;SDS011;48553;50.766;2.900;2022-08-01T17:52:48;4.05;;;2.63;;
60851;SDS011;48553;50.766;2.900;2022-08-01T17:55:49;4.22;;;2.85;;
60851;SDS011;48553;50.766;2.900;2022-08-01T17:58:50;5.13;;;3.63;;
60851;SDS011;48553;50.766;2.900;2022-08-01T18:01:50;5.65;;;2.70;;
60851;SDS011;48553;50.766;2.900;2022-08-01T18:04:51;3.80;;;2.35;;
60851;SDS011;48553;50.766;2.900;2022-08-01T18:07:51;4.63;;;2.63;;
60851;SDS011;48553;50.766;2.900;2022-08-01T18:10:52;4.75;;;2.80;;
60851;SDS011;48553;50.766;2.900;2022-08-01T18:13:54;3.75;;;2.33;;
60851;SDS011;48553;50.766;2.900;2022-08-01T18:16:55;4.85;;;2.58;;
60851;SDS011;48553;50.766;2.900;2022-08-01T18:19:56;3.92;;;2.60;;
60851;SDS011;48553;50.766;2.900;2022-08-01T18:22:57;3.90;;;2.55;;
60851;SDS011;48553;50.766;2.900;2022-08-01T18:25:58;3.88;;;2.38;;
60851;SDS011;48553;50.766;2.900;2022-08-01T18:29:02;5.57;;;2.50;;
60851;SDS011;48553;50.766;2.900;2022-08-01T18:32:02;5.97;;;2.55;;
60851;SDS011;48553;50.766;2.900;2022-08-01T18:35:04;4.47;;;2.60;;
60851;SDS011;48553;50.766;2.900;2022-08-01T18:38:05;6.07;;;2.50;;
60851;SDS011;48553;50.766;2.900;2022-08-01T18:41:05;3.97;;;2.50;;